sensor_id;sensor_type;location;lat;lon;timestamp;P1;durP1;ratioP1;P2;durP2;ratioP2
45065;SDS011;30830;53.704;10.004;2022-09-20T00:01:53;2.85;;;1.50;;
45065;SDS011;30830;53.704;10.004;2022-09-20T00:04:18;3.58;;;2.15;;
45065;SDS011;30830;53.704;10.004;2022-09-20T00:06:44;2.97;;;2.15;;
45065;SDS011;30830;53.704;10.004;2022-09-20T00:09:09;1.95;;;1.23;;
45065;SDS011;30830;53.704;10.004;2022-09-20T00:11:36;4.63;;;1.67;;
45065;SDS011;30830;53.704;10.004;2022-09-20T00:14:03;4.05;;;1.70;;
45065;SDS011;30830;53.704;10.004;2022-09-20T00:16:31;3.30;;;1.35;;
45065;SDS011;30830;53.704;10.004;2022-09-20T00:18:59;6.38;;;2.30;;
45065;SDS011;30830;53.704;10.004;2022-09-20T00:21:28;4.57;;;1.80;;
45065;SDS011;30830;53.704;10.004;2022-09-20T00:23:55;3.97;;;1.63;;
45065;SDS011;30830;53.704;10.004;2022-09-20T00:26:21;4.75;;;2.30;;
45065;SDS011;30830;53.704;10.004;2022-09-20T00:28:47;2.42;;;1.70;;
45065;SDS011;30830;53.704;10.004;2022-09-20T00:31:13;3.80;;;2.10;;
45065;SDS011;30830;53.704;10.004;2022-09-20T00:33:39;2.58;;;1.42;;
45065;SDS011;30830;53.704;10.004;2022-09-20T00:36:23;4.15;;;1.55;;
45065;SDS011;30830;53.704;10.004;2022-09-20T00:38:58;3.28;;;1.67;;
45065;SDS011;30830;53.704;10.004;2022-09-20T00:41:25;5.50;;;1.83;;
45065;SDS011;30830;53.704;10.004;2022-09-20T00:43:52;5.60;;;2.40;;
45065;SDS011;30830;53.704;10.004;2022-09-20T00:48:52;4.05;;;1.77;;
45065;SDS011;30830;53.704;10.004;2022-09-20T00:51:24;7.60;;;2.67;;
45065;SDS011;30830;53.704;10.004;2022-09-20T00:53:53;3.70;;;2.00;;
45065;SDS011;30830;53.704;10.004;2022-09-20T00:56:24;4.28;;;2.35;;
45065;SDS011;30830;53.704;10.004;2022-09-20T00:59:30;4.20;;;2.22;;
45065;SDS011;30830;53.704;10.004;2022-09-20T01:01:52;5.07;;;1.88;;
45065;SDS011;30830;53.704;10.004;2022-09-20T01:04:23;4.70;;;2.30;;
45065;SDS011;30830;53.704;10.004;2022-09-20T01:06:51;5.10;;;2.25;;
45065;SDS011;30830;53.704;10.004;2022-09-20T01:09:18;5.68;;;2.83;;
45065;SDS011;30830;53.704;10.004;2022-09-20T01:11:44;4.13;;;2.53;;
45065;SDS011;30830;53.704;10.004;2022-09-20T01:14:11;5.55;;;2.88;;
45065;SDS011;30830;53.704;10.004;2022-09-20T01:16:39;5.22;;;2.67;;
45065;SDS011;30830;53.704;10.004;2022-09-20T01:19:07;4.60;;;2.50;;
45065;SDS011;30830;53.704;10.004;2022-09-20T01:21:42;3.85;;;2.80;;
45065;SDS011;30830;53.704;10.004;2022-09-20T01:24:21;3.95;;;2.65;;
45065;SDS011;30830;53.704;10.004;2022-09-20T01:32:34;5.63;;;2.88;;
45065;SDS011;30830;53.704;10.004;2022-09-20T01:35:08;5.97;;;3.25;;
45065;SDS011;30830;53.704;10.004;2022-09-20T01:40:30;5.65;;;2.47;;
45065;SDS011;30830;53.704;10.004;2022-09-20T01:43:14;3.53;;;2.67;;
45065;SDS011;30830;53.704;10.004;2022-09-20T01:45:49;4.50;;;3.13;;
45065;SDS011;30830;53.704;10.004;2022-09-20T01:58:57;6.00;;;2.22;;
45065;SDS011;30830;53.704;10.004;2022-09-20T02:12:52;5.20;;;2.83;;
45065;SDS011;30830;53.704;10.004;2022-09-20T02:15:33;8.73;;;2.78;;
45065;SDS011;30830;53.704;10.004;2022-09-20T02:18:25;3.97;;;2.67;;
45065;SDS011;30830;53.704;10.004;2022-09-20T02:27:01;3.97;;;2.35;;
45065;SDS011;30830;53.704;10.004;2022-09-20T02:29:52;2.28;;;1.98;;
45065;SDS011;30830;53.704;10.004;2022-09-20T02:35:40;4.40;;;1.80;;
45065;SDS011;30830;53.704;10.004;2022-09-20T02:41:32;2.95;;;2.65;;
45065;SDS011;30830;53.704;10.004;2022-09-20T02:52:44;5.63;;;2.05;;
45065;SDS011;30830;53.704;10.004;2022-09-20T02:58:31;3.17;;;2.05;;
45065;SDS011;30830;53.704;10.004;2022-09-20T03:06:25;4.72;;;2.05;;
45065;SDS011;30830;53.704;10.004;2022-09-20T03:15:22;6.28;;;2.40;;
45065;SDS011;30830;53.704;10.004;2022-09-20T03:26:19;5.50;;;2.83;;
45065;SDS011;30830;53.704;10.004;2022-09-20T03:42:27;7.35;;;2.55;;
45065;SDS011;30830;53.704;10.004;2022-09-20T04:07:20;4.10;;;2.90;;
45065;SDS011;30830;53.704;10.004;2022-09-20T04:12:39;2.85;;;2.15;;
45065;SDS011;30830;53.704;10.004;2022-09-20T04:15:28;3.88;;;2.38;;
45065;SDS011;30830;53.704;10.004;2022-09-20T04:26:25;5.47;;;3.00;;
45065;SDS011;30830;53.704;10.004;2022-09-20T04:28:53;3.55;;;2.60;;
45065;SDS011;30830;53.704;10.004;2022-09-20T04:33:58;3.35;;;2.42;;
45065;SDS011;30830;53.704;10.004;2022-09-20T04:36:36;3.58;;;3.00;;
45065;SDS011;30830;53.704;10.004;2022-09-20T04:42:28;3.83;;;2.38;;
45065;SDS011;30830;53.704;10.004;2022-09-20T04:47:51;7.22;;;2.83;;
45065;SDS011;30830;53.704;10.004;2022-09-20T04:55:53;2.88;;;2.28;;
45065;SDS011;30830;53.704;10.004;2022-09-20T05:12:31;3.58;;;2.33;;
45065;SDS011;30830;53.704;10.004;2022-09-20T05:18:06;4.00;;;2.20;;
45065;SDS011;30830;53.704;10.004;2022-09-20T05:21:22;2.55;;;1.90;;
45065;SDS011;30830;53.704;10.004;2022-09-20T05:24:04;4.78;;;2.38;;
45065;SDS011;30830;53.704;10.004;2022-09-20T05:27:02;3.42;;;2.33;;
45065;SDS011;30830;53.704;10.004;2022-09-20T05:32:26;3.38;;;2.17;;
45065;SDS011;30830;53.704;10.004;2022-09-20T05:43:04;3.03;;;2.72;;
45065;SDS011;30830;53.704;10.004;2022-09-20T05:56:58;2.53;;;2.20;;
45065;SDS011;30830;53.704;10.004;2022-09-20T05:59:30;3.03;;;1.77;;
45065;SDS011;30830;53.704;10.004;2022-09-20T06:05:31;2.50;;;2.30;;
45065;SDS011;30830;53.704;10.004;2022-09-20T06:16:32;3.55;;;2.60;;
45065;SDS011;30830;53.704;10.004;2022-09-20T06:22:00;3.40;;;2.58;;
45065;SDS011;30830;53.704;10.004;2022-09-20T06:27:22;2.97;;;2.50;;
45065;SDS011;30830;53.704;10.004;2022-09-20T06:30:20;5.00;;;3.10;;
45065;SDS011;30830;53.704;10.004;2022-09-20T06:32:55;3.20;;;2.10;;
45065;SDS011;30830;53.704;10.004;2022-09-20T06:35:22;4.85;;;2.55;;
45065;SDS011;30830;53.704;10.004;2022-09-20T06:37:57;4.47;;;2.35;;
45065;SDS011;30830;53.704;10.004;2022-09-20T06:41:06;2.38;;;2.10;;
45065;SDS011;30830;53.704;10.004;2022-09-20T06:43:56;5.07;;;2.40;;
45065;SDS011;30830;53.704;10.004;2022-09-20T06:46:23;2.92;;;2.20;;
45065;SDS011;30830;53.704;10.004;2022-09-20T06:48:51;3.10;;;2.38;;
45065;SDS011;30830;53.704;10.004;2022-09-20T06:51:16;6.32;;;2.97;;
45065;SDS011;30830;53.704;10.004;2022-09-20T06:53:42;3.90;;;2.78;;
45065;SDS011;30830;53.704;10.004;2022-09-20T06:56:08;5.45;;;2.80;;
45065;SDS011;30830;53.704;10.004;2022-09-20T06:58:39;9.93;;;3.08;;
45065;SDS011;30830;53.704;10.004;2022-09-20T07:01:05;3.83;;;2.30;;
45065;SDS011;30830;53.704;10.004;2022-09-20T07:03:30;4.85;;;2.30;;
45065;SDS011;30830;53.704;10.004;2022-09-20T07:08:32;6.40;;;2.20;;
45065;SDS011;30830;53.704;10.004;2022-09-20T07:11:08;10.13;;;2.42;;
45065;SDS011;30830;53.704;10.004;2022-09-20T07:13:37;5.10;;;2.50;;
45065;SDS011;30830;53.704;10.004;2022-09-20T07:16:04;4.75;;;2.70;;
45065;SDS011;30830;53.704;10.004;2022-09-20T07:18:31;6.63;;;2.80;;
45065;SDS011;30830;53.704;10.004;2022-09-20T07:20:57;7.90;;;2.72;;
45065;SDS011;30830;53.704;10.004;2022-09-20T07:23:24;7.70;;;2.80;;
45065;SDS011;30830;53.704;10.004;2022-09-20T07:25:51;6.15;;;2.10;;
45065;SDS011;30830;53.704;10.004;2022-09-20T07:28:17;6.40;;;2.88;;
45065;SDS011;30830;53.704;10.004;2022-09-20T07:30:44;7.57;;;2.72;;
45065;SDS011;30830;53.704;10.004;2022-09-20T07:33:11;8.32;;;4.07;;
45065;SDS011;30830;53.704;10.004;2022-09-20T07:35:41;9.45;;;4.20;;
45065;SDS011;30830;53.704;10.004;2022-09-20T07:38:06;8.05;;;2.80;;
45065;SDS011;30830;53.704;10.004;2022-09-20T07:40:32;7.40;;;2.50;;
45065;SDS011;30830;53.704;10.004;2022-09-20T07:42:58;5.60;;;2.42;;
45065;SDS011;30830;53.704;10.004;2022-09-20T07:45:24;7.85;;;2.25;;
45065;SDS011;30830;53.704;10.004;2022-09-20T07:47:50;10.40;;;3.10;;
45065;SDS011;30830;53.704;10.004;2022-09-20T07:50:17;5.90;;;2.00;;
45065;SDS011;30830;53.704;10.004;2022-09-20T07:52:43;6.35;;;2.28;;
45065;SDS011;30830;53.704;10.004;2022-09-20T07:55:09;7.20;;;1.88;;
45065;SDS011;30830;53.704;10.004;2022-09-20T07:57:35;7.90;;;2.35;;
45065;SDS011;30830;53.704;10.004;2022-09-20T08:00:03;8.57;;;2.30;;
45065;SDS011;30830;53.704;10.004;2022-09-20T08:02:30;7.72;;;1.30;;
45065;SDS011;30830;53.704;10.004;2022-09-20T08:04:56;7.55;;;2.03;;
45065;SDS011;30830;53.704;10.004;2022-09-20T08:07:21;6.18;;;1.75;;
45065;SDS011;30830;53.704;10.004;2022-09-20T08:09:48;7.00;;;1.85;;
45065;SDS011;30830;53.704;10.004;2022-09-20T08:12:14;12.52;;;1.92;;
45065;SDS011;30830;53.704;10.004;2022-09-20T08:14:41;7.05;;;2.08;;
45065;SDS011;30830;53.704;10.004;2022-09-20T08:17:07;9.25;;;2.08;;
45065;SDS011;30830;53.704;10.004;2022-09-20T08:19:34;8.38;;;1.60;;
45065;SDS011;30830;53.704;10.004;2022-09-20T08:22:01;5.40;;;1.52;;
45065;SDS011;30830;53.704;10.004;2022-09-20T08:24:26;6.20;;;1.40;;
45065;SDS011;30830;53.704;10.004;2022-09-20T08:26:52;8.70;;;2.00;;
45065;SDS011;30830;53.704;10.004;2022-09-20T08:29:17;3.58;;;1.38;;
45065;SDS011;30830;53.704;10.004;2022-09-20T08:31:43;3.15;;;1.27;;
45065;SDS011;30830;53.704;10.004;2022-09-20T08:34:11;9.45;;;1.98;;
45065;SDS011;30830;53.704;10.004;2022-09-20T08:36:40;3.65;;;1.45;;
45065;SDS011;30830;53.704;10.004;2022-09-20T08:39:09;5.43;;;1.95;;
45065;SDS011;30830;53.704;10.004;2022-09-20T08:41:37;5.93;;;1.20;;
45065;SDS011;30830;53.704;10.004;2022-09-20T08:46:46;7.97;;;1.95;;
45065;SDS011;30830;53.704;10.004;2022-09-20T08:49:21;8.35;;;1.75;;
45065;SDS011;30830;53.704;10.004;2022-09-20T08:51:50;7.07;;;1.67;;
45065;SDS011;30830;53.704;10.004;2022-09-20T08:54:18;7.07;;;1.77;;
45065;SDS011;30830;53.704;10.004;2022-09-20T08:56:44;8.48;;;2.22;;
45065;SDS011;30830;53.704;10.004;2022-09-20T08:59:14;7.40;;;1.42;;
45065;SDS011;30830;53.704;10.004;2022-09-20T09:01:42;5.72;;;1.40;;
45065;SDS011;30830;53.704;10.004;2022-09-20T09:04:15;6.20;;;1.23;;
45065;SDS011;30830;53.704;10.004;2022-09-20T09:06:47;4.32;;;1.35;;
45065;SDS011;30830;53.704;10.004;2022-09-20T09:09:18;10.70;;;1.52;;
45065;SDS011;30830;53.704;10.004;2022-09-20T09:11:50;3.00;;;1.50;;
45065;SDS011;30830;53.704;10.004;2022-09-20T09:17:08;3.63;;;1.25;;
45065;SDS011;30830;53.704;10.004;2022-09-20T09:22:47;6.25;;;1.50;;
45065;SDS011;30830;53.704;10.004;2022-09-20T09:30:33;4.97;;;1.20;;
45065;SDS011;30830;53.704;10.004;2022-09-20T09:35:59;6.35;;;1.15;;
45065;SDS011;30830;53.704;10.004;2022-09-20T09:38:32;6.22;;;1.42;;
45065;SDS011;30830;53.704;10.004;2022-09-20T09:41:01;4.25;;;1.40;;
45065;SDS011;30830;53.704;10.004;2022-09-20T09:43:33;9.75;;;2.65;;
45065;SDS011;30830;53.704;10.004;2022-09-20T09:46:22;5.32;;;1.50;;
45065;SDS011;30830;53.704;10.004;2022-09-20T09:54:27;6.55;;;1.65;;
45065;SDS011;30830;53.704;10.004;2022-09-20T09:57:03;8.88;;;1.27;;
45065;SDS011;30830;53.704;10.004;2022-09-20T09:59:53;7.93;;;1.80;;
45065;SDS011;30830;53.704;10.004;2022-09-20T10:08:54;11.73;;;2.03;;
45065;SDS011;30830;53.704;10.004;2022-09-20T10:14:47;1.60;;;0.70;;
45065;SDS011;30830;53.704;10.004;2022-09-20T10:20:08;10.13;;;1.60;;
45065;SDS011;30830;53.704;10.004;2022-09-20T10:22:59;5.87;;;1.07;;
45065;SDS011;30830;53.704;10.004;2022-09-20T10:36:57;3.15;;;1.20;;
45065;SDS011;30830;53.704;10.004;2022-09-20T10:39:35;4.25;;;1.27;;
45065;SDS011;30830;53.704;10.004;2022-09-20T10:47:33;8.73;;;1.20;;
45065;SDS011;30830;53.704;10.004;2022-09-20T10:55:51;5.85;;;1.10;;
45065;SDS011;30830;53.704;10.004;2022-09-20T10:58:30;7.43;;;1.63;;
45065;SDS011;30830;53.704;10.004;2022-09-20T11:01:06;4.22;;;1.15;;
45065;SDS011;30830;53.704;10.004;2022-09-20T11:03:47;3.83;;;1.10;;
45065;SDS011;30830;53.704;10.004;2022-09-20T11:09:20;6.25;;;1.40;;
45065;SDS011;30830;53.704;10.004;2022-09-20T11:12:05;7.65;;;1.30;;
45065;SDS011;30830;53.704;10.004;2022-09-20T11:14:51;2.80;;;0.88;;
45065;SDS011;30830;53.704;10.004;2022-09-20T11:17:22;6.10;;;1.58;;
45065;SDS011;30830;53.704;10.004;2022-09-20T11:20:02;3.55;;;1.38;;
45065;SDS011;30830;53.704;10.004;2022-09-20T11:22:37;3.72;;;0.95;;
45065;SDS011;30830;53.704;10.004;2022-09-20T11:25:15;3.58;;;1.77;;
45065;SDS011;30830;53.704;10.004;2022-09-20T11:27:52;3.28;;;1.30;;
45065;SDS011;30830;53.704;10.004;2022-09-20T11:30:22;6.18;;;1.45;;
45065;SDS011;30830;53.704;10.004;2022-09-20T11:35:32;4.90;;;1.23;;
45065;SDS011;30830;53.704;10.004;2022-09-20T11:43:15;5.63;;;1.30;;
45065;SDS011;30830;53.704;10.004;2022-09-20T11:45:43;6.57;;;0.98;;
45065;SDS011;30830;53.704;10.004;2022-09-20T11:48:26;10.05;;;1.40;;
45065;SDS011;30830;53.704;10.004;2022-09-20T11:51:46;6.07;;;0.80;;
45065;SDS011;30830;53.704;10.004;2022-09-20T11:56:40;2.13;;;0.85;;
45065;SDS011;30830;53.704;10.004;2022-09-20T12:01:58;2.42;;;1.00;;
45065;SDS011;30830;53.704;10.004;2022-09-20T12:04:27;3.17;;;0.57;;
45065;SDS011;30830;53.704;10.004;2022-09-20T12:07:00;5.80;;;0.93;;
45065;SDS011;30830;53.704;10.004;2022-09-20T12:09:30;4.85;;;1.02;;
45065;SDS011;30830;53.704;10.004;2022-09-20T12:12:12;3.72;;;0.70;;
45065;SDS011;30830;53.704;10.004;2022-09-20T12:14:55;5.85;;;1.17;;
45065;SDS011;30830;53.704;10.004;2022-09-20T12:28:37;2.75;;;0.93;;
45065;SDS011;30830;53.704;10.004;2022-09-20T12:33:56;5.80;;;1.48;;
45065;SDS011;30830;53.704;10.004;2022-09-20T12:36:29;6.40;;;2.22;;
45065;SDS011;30830;53.704;10.004;2022-09-20T12:41:46;6.22;;;1.13;;
45065;SDS011;30830;53.704;10.004;2022-09-20T12:44:22;5.13;;;0.93;;
45065;SDS011;30830;53.704;10.004;2022-09-20T12:52:37;4.00;;;0.68;;
45065;SDS011;30830;53.704;10.004;2022-09-20T13:08:31;4.53;;;0.85;;
45065;SDS011;30830;53.704;10.004;2022-09-20T13:11:28;1.33;;;0.45;;
45065;SDS011;30830;53.704;10.004;2022-09-20T13:14:20;5.25;;;0.65;;
45065;SDS011;30830;53.704;10.004;2022-09-20T13:19:46;2.42;;;0.88;;
45065;SDS011;30830;53.704;10.004;2022-09-20T13:22:12;4.40;;;0.65;;
45065;SDS011;30830;53.704;10.004;2022-09-20T13:24:46;1.88;;;0.70;;
45065;SDS011;30830;53.704;10.004;2022-09-20T13:27:14;5.20;;;1.27;;
45065;SDS011;30830;53.704;10.004;2022-09-20T13:29:49;5.35;;;0.90;;
45065;SDS011;30830;53.704;10.004;2022-09-20T13:32:25;3.40;;;1.00;;
45065;SDS011;30830;53.704;10.004;2022-09-20T13:38:18;4.80;;;1.27;;
45065;SDS011;30830;53.704;10.004;2022-09-20T13:40:44;3.97;;;1.40;;
45065;SDS011;30830;53.704;10.004;2022-09-20T13:43:31;1.80;;;0.55;;
45065;SDS011;30830;53.704;10.004;2022-09-20T13:46:05;4.15;;;0.82;;
45065;SDS011;30830;53.704;10.004;2022-09-20T13:48:36;2.38;;;1.23;;
45065;SDS011;30830;53.704;10.004;2022-09-20T13:51:03;4.53;;;0.40;;
45065;SDS011;30830;53.704;10.004;2022-09-20T13:53:39;3.85;;;1.02;;
45065;SDS011;30830;53.704;10.004;2022-09-20T13:56:08;3.55;;;0.70;;
45065;SDS011;30830;53.704;10.004;2022-09-20T13:58:40;3.17;;;0.70;;
45065;SDS011;30830;53.704;10.004;2022-09-20T14:01:06;6.90;;;1.30;;
45065;SDS011;30830;53.704;10.004;2022-09-20T14:03:46;3.83;;;1.55;;
45065;SDS011;30830;53.704;10.004;2022-09-20T14:06:12;4.00;;;0.98;;
45065;SDS011;30830;53.704;10.004;2022-09-20T14:08:40;2.95;;;0.95;;
45065;SDS011;30830;53.704;10.004;2022-09-20T14:11:14;3.75;;;2.00;;
45065;SDS011;30830;53.704;10.004;2022-09-20T14:13:43;4.47;;;1.10;;
45065;SDS011;30830;53.704;10.004;2022-09-20T14:16:12;1.70;;;0.73;;
45065;SDS011;30830;53.704;10.004;2022-09-20T14:18:39;3.45;;;0.77;;
45065;SDS011;30830;53.704;10.004;2022-09-20T14:21:06;3.30;;;0.82;;
45065;SDS011;30830;53.704;10.004;2022-09-20T14:23:47;3.53;;;0.77;;
45065;SDS011;30830;53.704;10.004;2022-09-20T14:28:43;2.45;;;0.77;;
45065;SDS011;30830;53.704;10.004;2022-09-20T14:31:17;4.82;;;1.13;;
45065;SDS011;30830;53.704;10.004;2022-09-20T14:33:46;1.27;;;0.47;;
45065;SDS011;30830;53.704;10.004;2022-09-20T14:36:16;1.70;;;0.68;;
45065;SDS011;30830;53.704;10.004;2022-09-20T14:38:46;0.73;;;0.43;;
45065;SDS011;30830;53.704;10.004;2022-09-20T14:41:20;1.63;;;0.55;;
45065;SDS011;30830;53.704;10.004;2022-09-20T14:44:05;2.40;;;0.65;;
45065;SDS011;30830;53.704;10.004;2022-09-20T14:46:41;2.42;;;1.15;;
45065;SDS011;30830;53.704;10.004;2022-09-20T14:51:52;3.55;;;0.85;;
45065;SDS011;30830;53.704;10.004;2022-09-20T14:54:39;5.00;;;1.00;;
45065;SDS011;30830;53.704;10.004;2022-09-20T14:57:05;2.97;;;0.80;;
45065;SDS011;30830;53.704;10.004;2022-09-20T14:59:36;2.10;;;0.50;;
45065;SDS011;30830;53.704;10.004;2022-09-20T15:04:31;1.10;;;0.25;;
45065;SDS011;30830;53.704;10.004;2022-09-20T15:07:17;1.77;;;0.47;;
45065;SDS011;30830;53.704;10.004;2022-09-20T15:09:43;3.80;;;0.70;;
45065;SDS011;30830;53.704;10.004;2022-09-20T15:12:16;1.35;;;0.73;;
45065;SDS011;30830;53.704;10.004;2022-09-20T15:14:43;2.75;;;0.95;;
45065;SDS011;30830;53.704;10.004;2022-09-20T15:17:14;1.60;;;0.50;;
45065;SDS011;30830;53.704;10.004;2022-09-20T15:19:39;2.90;;;0.95;;
45065;SDS011;30830;53.704;10.004;2022-09-20T15:22:07;3.70;;;0.40;;
45065;SDS011;30830;53.704;10.004;2022-09-20T15:24:35;0.90;;;0.40;;
45065;SDS011;30830;53.704;10.004;2022-09-20T15:27:02;2.80;;;0.50;;
45065;SDS011;30830;53.704;10.004;2022-09-20T15:29:28;2.00;;;1.02;;
45065;SDS011;30830;53.704;10.004;2022-09-20T15:31:54;2.40;;;0.57;;
45065;SDS011;30830;53.704;10.004;2022-09-20T15:34:19;2.10;;;0.65;;
45065;SDS011;30830;53.704;10.004;2022-09-20T15:36:45;3.60;;;0.68;;
45065;SDS011;30830;53.704;10.004;2022-09-20T15:39:11;1.27;;;0.70;;
45065;SDS011;30830;53.704;10.004;2022-09-20T15:41:37;3.17;;;0.55;;
45065;SDS011;30830;53.704;10.004;2022-09-20T15:44:03;4.97;;;0.60;;
45065;SDS011;30830;53.704;10.004;2022-09-20T15:46:29;1.52;;;0.50;;
45065;SDS011;30830;53.704;10.004;2022-09-20T15:48:56;2.55;;;0.50;;
45065;SDS011;30830;53.704;10.004;2022-09-20T15:51:24;1.98;;;0.60;;
45065;SDS011;30830;53.704;10.004;2022-09-20T15:53:54;1.73;;;0.95;;
45065;SDS011;30830;53.704;10.004;2022-09-20T15:56:34;1.80;;;0.52;;
45065;SDS011;30830;53.704;10.004;2022-09-20T15:59:04;1.55;;;0.68;;
45065;SDS011;30830;53.704;10.004;2022-09-20T16:01:35;3.03;;;0.70;;
45065;SDS011;30830;53.704;10.004;2022-09-20T16:04:13;1.20;;;0.50;;
45065;SDS011;30830;53.704;10.004;2022-09-20T16:06:41;1.80;;;0.80;;
45065;SDS011;30830;53.704;10.004;2022-09-20T16:09:08;2.13;;;0.85;;
45065;SDS011;30830;53.704;10.004;2022-09-20T16:11:34;2.95;;;0.70;;
45065;SDS011;30830;53.704;10.004;2022-09-20T16:14:00;3.90;;;0.68;;
45065;SDS011;30830;53.704;10.004;2022-09-20T16:16:27;1.50;;;0.55;;
45065;SDS011;30830;53.704;10.004;2022-09-20T16:18:54;1.85;;;1.00;;
45065;SDS011;30830;53.704;10.004;2022-09-20T16:21:39;2.92;;;1.20;;
45065;SDS011;30830;53.704;10.004;2022-09-20T16:24:06;4.43;;;1.00;;
45065;SDS011;30830;53.704;10.004;2022-09-20T16:26:32;2.20;;;0.88;;
45065;SDS011;30830;53.704;10.004;2022-09-20T16:28:59;1.83;;;0.88;;
45065;SDS011;30830;53.704;10.004;2022-09-20T16:34:04;2.08;;;0.73;;
45065;SDS011;30830;53.704;10.004;2022-09-20T16:36:38;1.05;;;0.38;;
45065;SDS011;30830;53.704;10.004;2022-09-20T16:39:05;1.80;;;0.90;;
45065;SDS011;30830;53.704;10.004;2022-09-20T16:41:31;5.03;;;1.23;;
45065;SDS011;30830;53.704;10.004;2022-09-20T16:43:57;2.63;;;0.85;;
45065;SDS011;30830;53.704;10.004;2022-09-20T16:46:23;1.58;;;0.70;;
45065;SDS011;30830;53.704;10.004;2022-09-20T16:48:51;1.55;;;0.40;;
45065;SDS011;30830;53.704;10.004;2022-09-20T16:51:19;1.13;;;0.57;;
45065;SDS011;30830;53.704;10.004;2022-09-20T16:53:47;5.30;;;0.90;;
45065;SDS011;30830;53.704;10.004;2022-09-20T16:56:17;1.80;;;0.60;;
45065;SDS011;30830;53.704;10.004;2022-09-20T16:58:45;1.58;;;0.60;;
45065;SDS011;30830;53.704;10.004;2022-09-20T17:01:11;1.00;;;0.50;;
45065;SDS011;30830;53.704;10.004;2022-09-20T17:03:40;1.52;;;0.75;;
45065;SDS011;30830;53.704;10.004;2022-09-20T17:06:07;3.30;;;0.77;;
45065;SDS011;30830;53.704;10.004;2022-09-20T17:08:33;2.45;;;0.80;;
45065;SDS011;30830;53.704;10.004;2022-09-20T17:11:03;3.97;;;0.75;;
45065;SDS011;30830;53.704;10.004;2022-09-20T17:13:32;1.30;;;0.90;;
45065;SDS011;30830;53.704;10.004;2022-09-20T17:15:59;0.98;;;0.52;;
45065;SDS011;30830;53.704;10.004;2022-09-20T17:18:29;1.50;;;0.63;;
45065;SDS011;30830;53.704;10.004;2022-09-20T17:20:55;3.33;;;1.15;;
45065;SDS011;30830;53.704;10.004;2022-09-20T17:23:20;1.70;;;0.65;;
45065;SDS011;30830;53.704;10.004;2022-09-20T17:25:47;1.98;;;0.60;;
45065;SDS011;30830;53.704;10.004;2022-09-20T17:28:14;2.72;;;1.05;;
45065;SDS011;30830;53.704;10.004;2022-09-20T17:30:40;1.50;;;0.60;;
45065;SDS011;30830;53.704;10.004;2022-09-20T17:33:06;2.58;;;1.20;;
45065;SDS011;30830;53.704;10.004;2022-09-20T17:35:31;2.75;;;0.70;;
45065;SDS011;30830;53.704;10.004;2022-09-20T17:37:57;3.63;;;0.90;;
45065;SDS011;30830;53.704;10.004;2022-09-20T17:40:22;4.10;;;0.90;;
45065;SDS011;30830;53.704;10.004;2022-09-20T17:42:48;1.73;;;0.90;;
45065;SDS011;30830;53.704;10.004;2022-09-20T17:45:13;2.22;;;0.82;;
45065;SDS011;30830;53.704;10.004;2022-09-20T17:47:40;3.00;;;1.20;;
45065;SDS011;30830;53.704;10.004;2022-09-20T17:50:06;1.27;;;0.80;;
45065;SDS011;30830;53.704;10.004;2022-09-20T17:52:32;4.05;;;1.60;;
45065;SDS011;30830;53.704;10.004;2022-09-20T17:54:58;1.95;;;1.23;;
45065;SDS011;30830;53.704;10.004;2022-09-20T17:57:24;3.85;;;1.90;;
45065;SDS011;30830;53.704;10.004;2022-09-20T17:59:49;3.58;;;2.00;;
45065;SDS011;30830;53.704;10.004;2022-09-20T18:02:15;7.03;;;4.07;;
45065;SDS011;30830;53.704;10.004;2022-09-20T18:04:40;11.60;;;7.50;;
45065;SDS011;30830;53.704;10.004;2022-09-20T18:07:06;12.23;;;9.20;;
45065;SDS011;30830;53.704;10.004;2022-09-20T18:09:32;25.13;;;14.07;;
45065;SDS011;30830;53.704;10.004;2022-09-20T18:11:57;21.55;;;12.63;;
45065;SDS011;30830;53.704;10.004;2022-09-20T18:14:24;21.83;;;11.90;;
45065;SDS011;30830;53.704;10.004;2022-09-20T18:16:55;28.23;;;16.98;;
45065;SDS011;30830;53.704;10.004;2022-09-20T18:19:24;42.90;;;26.05;;
45065;SDS011;30830;53.704;10.004;2022-09-20T18:21:56;45.83;;;27.88;;
45065;SDS011;30830;53.704;10.004;2022-09-20T18:24:21;39.70;;;24.45;;
45065;SDS011;30830;53.704;10.004;2022-09-20T18:26:47;40.97;;;21.98;;
45065;SDS011;30830;53.704;10.004;2022-09-20T18:29:13;33.22;;;18.30;;
45065;SDS011;30830;53.704;10.004;2022-09-20T18:31:42;28.35;;;17.98;;
45065;SDS011;30830;53.704;10.004;2022-09-20T18:36:42;24.80;;;17.15;;
45065;SDS011;30830;53.704;10.004;2022-09-20T18:39:10;22.92;;;16.50;;
45065;SDS011;30830;53.704;10.004;2022-09-20T18:41:37;23.13;;;16.00;;
45065;SDS011;30830;53.704;10.004;2022-09-20T18:44:05;20.08;;;16.58;;
45065;SDS011;30830;53.704;10.004;2022-09-20T18:46:31;19.10;;;15.32;;
45065;SDS011;30830;53.704;10.004;2022-09-20T18:49:03;16.30;;;12.57;;
45065;SDS011;30830;53.704;10.004;2022-09-20T18:51:30;15.85;;;12.43;;
45065;SDS011;30830;53.704;10.004;2022-09-20T18:53:56;13.32;;;9.35;;
45065;SDS011;30830;53.704;10.004;2022-09-20T18:56:23;14.10;;;9.10;;
45065;SDS011;30830;53.704;10.004;2022-09-20T18:58:54;8.98;;;6.88;;
45065;SDS011;30830;53.704;10.004;2022-09-20T19:09:42;8.82;;;4.43;;
45065;SDS011;30830;53.704;10.004;2022-09-20T19:12:19;7.17;;;3.47;;
45065;SDS011;30830;53.704;10.004;2022-09-20T19:15:08;5.05;;;3.50;;
45065;SDS011;30830;53.704;10.004;2022-09-20T19:23:14;5.60;;;3.15;;
45065;SDS011;30830;53.704;10.004;2022-09-20T19:25:49;14.43;;;10.00;;
45065;SDS011;30830;53.704;10.004;2022-09-20T19:28:25;34.30;;;20.75;;
45065;SDS011;30830;53.704;10.004;2022-09-20T19:30:51;39.20;;;23.80;;
45065;SDS011;30830;53.704;10.004;2022-09-20T19:33:16;29.92;;;18.10;;
45065;SDS011;30830;53.704;10.004;2022-09-20T19:35:44;21.58;;;13.23;;
45065;SDS011;30830;53.704;10.004;2022-09-20T19:40:52;14.98;;;9.30;;
45065;SDS011;30830;53.704;10.004;2022-09-20T19:46:15;20.13;;;10.88;;
45065;SDS011;30830;53.704;10.004;2022-09-20T19:51:46;23.45;;;11.85;;
45065;SDS011;30830;53.704;10.004;2022-09-20T19:54:13;18.92;;;9.32;;
45065;SDS011;30830;53.704;10.004;2022-09-20T19:56:54;13.55;;;7.43;;
45065;SDS011;30830;53.704;10.004;2022-09-20T19:59:23;10.57;;;5.75;;
45065;SDS011;30830;53.704;10.004;2022-09-20T20:01:50;7.63;;;3.53;;
45065;SDS011;30830;53.704;10.004;2022-09-20T20:04:17;6.65;;;2.92;;
45065;SDS011;30830;53.704;10.004;2022-09-20T20:14:30;5.57;;;2.42;;
45065;SDS011;30830;53.704;10.004;2022-09-20T20:17:07;3.92;;;1.95;;
45065;SDS011;30830;53.704;10.004;2022-09-20T20:28:34;6.05;;;2.35;;
45065;SDS011;30830;53.704;10.004;2022-09-20T20:31:00;5.55;;;2.90;;
45065;SDS011;30830;53.704;10.004;2022-09-20T20:33:29;5.63;;;2.63;;
45065;SDS011;30830;53.704;10.004;2022-09-20T20:35:57;6.50;;;2.85;;
45065;SDS011;30830;53.704;10.004;2022-09-20T20:38:24;7.40;;;2.38;;
45065;SDS011;30830;53.704;10.004;2022-09-20T20:41:00;4.30;;;1.80;;
45065;SDS011;30830;53.704;10.004;2022-09-20T20:43:29;4.72;;;1.92;;
45065;SDS011;30830;53.704;10.004;2022-09-20T20:45:59;3.25;;;2.00;;
45065;SDS011;30830;53.704;10.004;2022-09-20T20:48:25;3.05;;;2.10;;
45065;SDS011;30830;53.704;10.004;2022-09-20T20:51:01;2.90;;;1.80;;
45065;SDS011;30830;53.704;10.004;2022-09-20T20:53:35;5.05;;;2.85;;
45065;SDS011;30830;53.704;10.004;2022-09-20T20:56:02;4.70;;;2.72;;
45065;SDS011;30830;53.704;10.004;2022-09-20T20:58:31;5.22;;;2.40;;
45065;SDS011;30830;53.704;10.004;2022-09-20T21:01:31;5.50;;;2.65;;
45065;SDS011;30830;53.704;10.004;2022-09-20T21:03:54;3.70;;;2.88;;